Current Conditions

Updated: 20-Jul-2017 07:38 AM  
Summary / Temperature Wind Rain






Feels like: 74°F

1-hour difference
7.0°F 7.0°F warmer than last hour.

24-hour difference
0.5°F0.5°F colder than yesterday at this time.

  Today Yesterday
High: 75.5°F
12:34 AM
97.3°F
5:06 PM
Low: 61.8°F
6:10 AM
63.2°F
5:45 AM
Wind from ESE ESE
0.2
Gust:  1.0 mph
0 Beaufort - Calm

Today: 3.5 - 12:23 AM
Month: 10.0 mph - Jul 18
Rain Today: 0.00 in
Current Rate (/hr): 0.000 in
Max Rate (/hr):
Rain Yesterday: 0.00 in
Storm Rain: 0.00 in
This Month: 0.00 in
Season Total: 0.00 in
Last Rain Event: 19 days ago
Humidity / Barometer Sun / Moon
Humidity: 69 Decreased 12.0% in the last hour.
Dew Point: 59.0°F Increased 2.4°F in the last hour.
Barometer: 29.958 inHg  
Baro Trend: Rising slowly
Sunrise: 5:54 AM
Sunset: 8:11 PM
Moonrise: 3:10 AM
Moonset: 4:23 PM
Sky Conditions UV Index
Summary: Clear
Visibility: 7 miles
Clouds: None
KVIS - 6:56 AM PDT
Current: 1.0  Low 
Thursday: 10.7  Very High 
Friday: 9.8  Very High 
Air Quality Fire Danger
 Moderate 
Ozone 11 ppb
PM 2.5 17 μg/m3
7:30 AM PDT
Current: 5  Low 

Local Alerts Local Forecast
Local NWS Alerts
Today

Areas of
Smoke
High 97
Tonight

Areas of
Smoke
Low 63
Fri

Areas of
Smoke
High 97
Fri night

Clear

Low 66
Sat

Sunny

High 99
Sat night

Clear

Low 72
Sun

Sunny

High 102

Local Radar Local Satellite Neighborhood Cam Sky Cam
Local Radar Local Satellite Neighborhood Cam Sky Cam


Nearby Personal Stations

Weather Underground PWS KCAEXETE7     Weather Underground PWS KCAEXETE6     Weather Underground PWS KCAEXETE11

Nearby Airport Stations

KVIS - Visalia, California, USA
Distance from station: W 14mi, 23km
Updated: Thu, 20-Jul-2017 6:56am PDT
Clear
Clear
 Wind from S
Wind: S 5 mph , 7 km/h
Temperature: 63°F , 17°C
Dew Point: 55°F , 13°C
Humidity: 77%
Barometer: 29.99 inHg , 1015.6 hPa
Clouds: Clear
Visibility: 7 miles , 11 km
2017/07/20 13:56 KVIS 201356Z AUTO 18004KT 7SM CLR 17/13 A2999 RMK AO2 SLP160 T01720133
KPTV - Porterville, California, USA
Distance from station: SSE 19mi, 31km
Updated: Thu, 20-Jul-2017 6:56am PDT

 Wind from SE
Wind: SE 6 mph , 9 km/h
Temperature: 64°F , 18°C
Dew Point: 52°F , 11°C
Humidity: 64%
Barometer: 30.00 inHg , 1015.9 hPa
Visibility: 10 miles , 16 km
2017/07/20 13:56 KPTV 201356Z AUTO 14005KT 10SM 18/11 A3000 RMK AO2 SLP165 T01830106 $

Metar display script from Saratoga-Weather.org



Visitor Map